createdAt,value
2023-03-15T00:41:01.772Z,1008.36
2023-03-15T00:42:01.781Z,1008.38
2023-03-15T00:43:01.787Z,1008.37
2023-03-15T00:44:01.832Z,1008.39
2023-03-15T00:45:01.870Z,1008.39
2023-03-15T00:46:01.869Z,1008.39
2023-03-15T00:47:02.169Z,1008.44
2023-03-15T00:48:01.922Z,1008.36
2023-03-15T00:49:01.962Z,1008.37
2023-03-15T00:50:01.991Z,1008.36
2023-03-15T00:51:02.009Z,1008.43
2023-03-15T00:52:02.031Z,1008.42
2023-03-15T00:53:02.173Z,1008.44
2023-03-15T00:54:02.380Z,1008.43
2023-03-15T00:55:02.120Z,1008.47
2023-03-15T00:56:02.142Z,1008.50
2023-03-15T00:57:02.194Z,1008.50
2023-03-15T00:58:02.194Z,1008.48
2023-03-15T00:59:02.234Z,1008.58
2023-03-15T01:00:02.269Z,1008.55
2023-03-15T01:01:02.574Z,1008.63
2023-03-15T01:02:02.379Z,1008.58
2023-03-15T01:03:02.419Z,1008.57
2023-03-15T01:04:02.360Z,1008.56
2023-03-15T01:05:02.376Z,1008.58
2023-03-15T01:06:02.416Z,1008.61
2023-03-15T01:07:02.430Z,1008.55
2023-03-15T01:08:02.815Z,1008.57
2023-03-15T01:09:02.486Z,1008.54
2023-03-15T01:10:02.521Z,1008.57
2023-03-15T01:11:02.543Z,1008.55
2023-03-15T01:12:02.566Z,1008.59
2023-03-15T01:13:02.613Z,1008.58
2023-03-15T01:14:02.621Z,1008.58
2023-03-15T01:15:02.946Z,1008.57
2023-03-15T01:16:02.759Z,1008.57
2023-03-15T01:17:02.715Z,1008.64
2023-03-15T01:18:02.768Z,1008.62
2023-03-15T01:19:02.756Z,1008.62
2023-03-15T01:20:02.781Z,1008.60
2023-03-15T01:21:02.806Z,1008.64
2023-03-15T01:22:03.135Z,1008.60
2023-03-15T01:23:02.859Z,1008.63
2023-03-15T01:24:02.886Z,1008.61
2023-03-15T01:25:02.925Z,1008.63
2023-03-15T01:26:02.952Z,1008.64
2023-03-15T01:27:02.971Z,1008.64
2023-03-15T01:28:03.017Z,1008.61
2023-03-15T01:29:03.342Z,1008.57
2023-03-15T01:30:03.096Z,1008.58
2023-03-15T01:31:03.193Z,1008.62
2023-03-15T01:32:03.159Z,1008.69
2023-03-15T01:33:03.156Z,1008.65
2023-03-15T01:34:03.148Z,1008.63
2023-03-15T01:35:03.181Z,1008.66
2023-03-15T01:36:03.510Z,1008.70
2023-03-15T01:37:03.239Z,1008.66
2023-03-15T01:38:03.255Z,1008.73
2023-03-15T01:39:03.284Z,1008.77
2023-03-15T01:40:03.329Z,1008.77
2023-03-15T01:41:03.349Z,1008.77
2023-03-15T01:42:03.376Z,1008.76
2023-03-15T01:43:03.693Z,1008.71
2023-03-15T01:44:03.421Z,1008.83
2023-03-15T01:45:03.464Z,1008.86
2023-03-15T01:46:03.471Z,1008.88
2023-03-15T01:47:03.554Z,1008.90
2023-03-15T01:48:03.521Z,1008.88
2023-03-15T01:49:03.852Z,1008.87
2023-03-15T01:50:03.581Z,1008.89
2023-03-15T01:51:03.606Z,1008.92
2023-03-15T01:52:03.690Z,1008.93
2023-03-15T01:53:03.658Z,1008.89
2023-03-15T01:54:03.693Z,1008.88
2023-03-15T01:55:04.011Z,1008.87
2023-03-15T01:56:03.740Z,1008.92
2023-03-15T01:57:03.763Z,1008.93
2023-03-15T01:58:03.785Z,1008.97
2023-03-15T01:59:03.832Z,1008.97
2023-03-15T02:00:03.851Z,1009.00
2023-03-15T02:01:04.349Z,1009.00
2023-03-15T02:02:03.946Z,1009.02
2023-03-15T02:03:03.941Z,1009.03
2023-03-15T02:04:03.970Z,1009.07
2023-03-15T02:05:03.981Z,1009.04
2023-03-15T02:06:04.024Z,1009.09
2023-03-15T02:07:04.054Z,1009.12
2023-03-15T02:08:04.355Z,1009.10
2023-03-15T02:10:41.242Z,1009.13
2023-03-15T02:11:41.264Z,1009.15
2023-03-15T02:12:41.290Z,1009.18
2023-03-15T02:13:41.323Z,1009.18
2023-03-15T02:14:41.343Z,1009.14
2023-03-15T02:15:41.375Z,1009.17
2023-03-15T02:16:41.827Z,1009.11
2023-03-15T02:17:41.457Z,1009.17
2023-03-15T02:18:41.460Z,1009.13
2023-03-15T02:19:41.612Z,1009.13
2023-03-15T02:20:41.539Z,1009.08
2023-03-15T02:21:41.542Z,1009.06
2023-03-15T02:22:41.856Z,1009.07
2023-03-15T02:23:41.582Z,1009.05
2023-03-15T02:24:41.609Z,1009.04
2023-03-15T02:25:41.642Z,1009.02
2023-03-15T02:26:41.659Z,1008.98
2023-03-15T02:27:41.688Z,1008.98
2023-03-15T02:28:41.971Z,1008.95
2023-03-15T02:29:41.749Z,1008.94
2023-03-15T02:30:41.769Z,1009.00
2023-03-15T02:31:41.850Z,1008.97
2023-03-15T02:32:41.866Z,1008.99
2023-03-15T02:33:41.870Z,1008.99
2023-03-15T02:34:42.172Z,1008.94
2023-03-15T02:35:41.907Z,1008.94
2023-03-15T02:36:41.923Z,1008.91
2023-03-15T02:37:41.952Z,1008.90
2023-03-15T02:38:41.981Z,1008.89
2023-03-15T02:39:42.003Z,1008.90
2023-03-15T02:40:42.035Z,1008.93
2023-03-15T02:41:42.391Z,1008.92
2023-03-15T02:42:42.080Z,1008.97
2023-03-15T02:43:42.112Z,1008.98
2023-03-15T02:44:42.137Z,1008.97
2023-03-15T02:45:42.342Z,1009.00
2023-03-15T02:46:42.188Z,1009.03
2023-03-15T02:47:42.221Z,1009.03
2023-03-15T02:48:42.562Z,1009.08
2023-03-15T02:49:42.267Z,1009.07
2023-03-15T02:50:42.295Z,1009.10
2023-03-15T02:51:42.335Z,1009.09
2023-03-15T02:52:42.352Z,1009.08
2023-03-15T02:53:42.386Z,1009.15
2023-03-15T02:54:42.401Z,1009.13
2023-03-15T02:55:42.731Z,1009.14
2023-03-15T02:56:42.460Z,1009.16
2023-03-15T02:57:42.491Z,1009.15
2023-03-15T02:58:42.516Z,1009.18
2023-03-15T02:59:42.658Z,1009.17
2023-03-15T03:00:42.656Z,1009.17
2023-03-15T03:01:42.640Z,1009.15
2023-03-15T03:02:42.989Z,1009.19
2023-03-15T03:03:42.649Z,1009.19
2023-03-15T03:04:42.704Z,1009.20
2023-03-15T03:05:42.699Z,1009.23
2023-03-15T03:06:42.723Z,1009.26
2023-03-15T03:07:42.778Z,1009.23
2023-03-15T03:08:42.778Z,1009.21
2023-03-15T03:09:43.054Z,1009.28
2023-03-15T03:10:42.832Z,1009.27
2023-03-15T03:11:42.873Z,1009.29
2023-03-15T03:12:42.881Z,1009.34
2023-03-15T03:13:42.909Z,1009.35
2023-03-15T03:14:42.941Z,1009.40
2023-03-15T03:15:44.024Z,1009.38
2023-03-15T03:16:43.322Z,1009.43
2023-03-15T03:17:43.018Z,1009.46
2023-03-15T03:18:43.041Z,1009.47
2023-03-15T03:19:43.068Z,1009.48
2023-03-15T03:20:43.249Z,1009.51
2023-03-15T03:21:43.130Z,1009.59
2023-03-15T03:22:43.159Z,1009.56
2023-03-15T03:23:43.472Z,1009.61
2023-03-15T03:26:43.254Z,1009.63
2023-03-15T03:27:43.281Z,1009.64
2023-03-15T03:28:43.302Z,1009.65
2023-03-15T03:29:43.338Z,1009.66
2023-03-15T03:30:43.657Z,1009.64
2023-03-15T03:31:43.395Z,1009.64
2023-03-15T03:32:43.538Z,1009.63
2023-03-15T03:33:43.431Z,1009.64
2023-03-15T03:34:43.469Z,1009.63
2023-03-15T03:35:43.492Z,1009.60
2023-03-15T03:36:43.537Z,1009.66
2023-03-15T03:37:43.862Z,1009.66
2023-03-15T03:38:43.669Z,1009.66
2023-03-15T03:39:43.594Z,1009.67
2023-03-15T03:40:43.627Z,1009.69
2023-03-15T03:41:43.651Z,1009.65
2023-03-15T03:42:43.673Z,1009.65
2023-03-15T03:43:43.698Z,1009.65
2023-03-15T03:44:44.028Z,1009.65
2023-03-15T03:45:43.779Z,1009.70
2023-03-15T03:46:43.802Z,1009.70
2023-03-15T03:47:43.809Z,1009.72
2023-03-15T03:48:43.836Z,1009.71
2023-03-15T03:49:43.863Z,1009.74
2023-03-15T03:50:43.891Z,1009.73
2023-03-15T03:51:44.217Z,1009.72
2023-03-15T03:52:44.000Z,1009.72
2023-03-15T03:53:43.968Z,1009.74
2023-03-15T03:54:43.996Z,1009.70
2023-03-15T03:55:44.020Z,1009.69
2023-03-15T03:56:44.056Z,1009.71
2023-03-15T03:57:44.076Z,1009.74
2023-03-15T03:58:44.359Z,1009.72
2023-03-15T03:59:44.131Z,1009.75
2023-03-15T04:00:44.165Z,1009.76
2023-03-15T04:01:44.183Z,1009.75
2023-03-15T04:02:44.289Z,1009.77
2023-03-15T04:03:44.237Z,1009.78
2023-03-15T04:04:44.633Z,1009.80
2023-03-15T04:05:44.293Z,1009.81
2023-03-15T04:06:44.315Z,1009.81
2023-03-15T04:07:44.341Z,1009.82
2023-03-15T04:08:44.429Z,1009.79
2023-03-15T04:09:44.399Z,1009.84
2023-03-15T04:10:44.727Z,1009.86
2023-03-15T04:11:44.479Z,1009.90
2023-03-15T04:12:44.526Z,1009.90
2023-03-15T04:14:44.530Z,1009.95
2023-03-15T04:15:44.577Z,1010.00
2023-03-15T04:16:44.852Z,1010.03
2023-03-15T04:17:44.613Z,1010.00
2023-03-15T04:18:44.649Z,1010.06
2023-03-15T04:19:44.672Z,1010.08
2023-03-15T04:20:44.699Z,1010.09
2023-03-15T04:21:44.722Z,1010.11
2023-03-15T04:22:44.745Z,1010.14
2023-03-15T04:23:45.028Z,1010.14
2023-03-15T04:24:44.873Z,1010.16
2023-03-15T04:25:44.846Z,1010.13
2023-03-15T04:26:44.854Z,1010.15
2023-03-15T04:27:44.884Z,1010.17
2023-03-15T04:28:44.914Z,1010.19
2023-03-15T04:29:44.942Z,1010.23
2023-03-15T04:30:45.274Z,1010.26
2023-03-15T04:31:45.043Z,1010.26
2023-03-15T04:32:45.080Z,1010.33
2023-03-15T04:33:45.057Z,1010.31
2023-03-15T04:34:45.068Z,1010.27
2023-03-15T04:35:45.126Z,1010.26
2023-03-15T04:36:45.127Z,1010.30
2023-03-15T04:37:45.456Z,1010.27
2023-03-15T04:38:45.181Z,1010.31
2023-03-15T04:39:45.212Z,1010.28
2023-03-15T04:40:45.253Z,1010.35
2023-03-15T04:41:45.367Z,1010.37
2023-03-15T04:42:45.290Z,1010.34
2023-03-15T04:43:45.317Z,1010.39
2023-03-15T04:44:45.643Z,1010.40
2023-03-15T04:45:45.371Z,1010.43
2023-03-15T04:46:45.511Z,1010.38
2023-03-15T04:47:45.425Z,1010.39
2023-03-15T04:48:45.460Z,1010.40
2023-03-15T04:49:45.482Z,1010.41
2023-03-15T04:50:45.514Z,1010.40
2023-03-15T04:51:45.868Z,1010.38
2023-03-15T04:52:45.557Z,1010.40
2023-03-15T04:53:45.588Z,1010.46
2023-03-15T04:54:45.612Z,1010.42
2023-03-15T04:55:45.642Z,1010.45
2023-03-15T04:56:45.690Z,1010.45
2023-03-15T04:57:45.702Z,1010.46
2023-03-15T04:58:46.056Z,1010.45
2023-03-15T04:59:45.756Z,1010.42
2023-03-15T05:00:45.804Z,1010.43
2023-03-15T05:01:45.835Z,1010.47
2023-03-15T05:02:45.827Z,1010.46
2023-03-15T05:03:45.864Z,1010.46
2023-03-15T05:04:45.893Z,1010.48
2023-03-15T05:05:46.211Z,1010.54
2023-03-15T05:06:45.935Z,1010.50
2023-03-15T05:07:45.969Z,1010.53
2023-03-15T05:08:45.988Z,1010.53
2023-03-15T05:09:46.036Z,1010.51
2023-03-15T05:10:46.050Z,1010.53
2023-03-15T05:11:46.070Z,1010.52
2023-03-15T05:12:46.468Z,1010.50
2023-03-15T05:13:46.123Z,1010.47
2023-03-15T05:14:46.199Z,1010.48
2023-03-15T05:15:46.193Z,1010.47
2023-03-15T05:16:46.209Z,1010.52
2023-03-15T05:18:46.262Z,1010.56
2023-03-15T05:19:46.543Z,1010.56
2023-03-15T05:20:46.319Z,1010.55
2023-03-15T05:21:46.350Z,1010.59
2023-03-15T05:22:46.367Z,1010.57
2023-03-15T05:23:46.390Z,1010.60
2023-03-15T05:24:46.426Z,1010.64
2023-03-15T05:25:46.448Z,1010.60
2023-03-15T05:26:46.777Z,1010.64
2023-03-15T05:27:46.515Z,1010.69
2023-03-15T05:28:46.552Z,1010.73
2023-03-15T05:29:46.561Z,1010.79
2023-03-15T05:30:46.590Z,1010.81
2023-03-15T05:31:46.680Z,1010.85
2023-03-15T05:32:46.669Z,1010.86
2023-03-15T05:33:47.223Z,1010.91
2023-03-15T05:34:46.693Z,1010.90
2023-03-15T05:35:46.798Z,1010.90
2023-03-15T05:36:46.749Z,1010.92
2023-03-15T05:37:46.776Z,1010.94
2023-03-15T05:38:46.796Z,1010.95
2023-03-15T05:39:46.823Z,1011.01
2023-03-15T05:40:47.155Z,1011.00
2023-03-15T05:41:46.872Z,1011.03
2023-03-15T05:42:46.904Z,1011.03
2023-03-15T05:43:46.976Z,1011.07
2023-03-15T05:44:46.980Z,1011.05
2023-03-15T05:45:47.027Z,1011.06
2023-03-15T05:46:47.007Z,1011.07
2023-03-15T05:47:47.340Z,1011.08
2023-03-15T05:48:47.086Z,1011.08
2023-03-15T05:49:47.153Z,1011.13
2023-03-15T05:50:47.131Z,1011.15
2023-03-15T05:51:47.156Z,1011.18
2023-03-15T05:52:47.177Z,1011.18
2023-03-15T05:53:47.214Z,1011.24
2023-03-15T05:54:47.581Z,1011.26
2023-03-15T05:55:47.256Z,1011.26
2023-03-15T05:56:47.286Z,1011.31
2023-03-15T05:57:47.305Z,1011.32
2023-03-15T05:58:47.348Z,1011.37
2023-03-15T05:59:47.366Z,1011.34
2023-03-15T06:00:47.711Z,1011.42
2023-03-15T06:01:47.412Z,1011.45
2023-03-15T06:02:47.744Z,1011.50
2023-03-15T06:03:47.598Z,1011.48
2023-03-15T06:04:47.496Z,1011.49
2023-03-15T06:05:47.526Z,1011.53
2023-03-15T06:06:47.804Z,1011.59
2023-03-15T06:07:47.590Z,1011.57
2023-03-15T06:08:47.622Z,1011.58
2023-03-15T06:09:47.645Z,1011.60
2023-03-15T06:10:47.665Z,1011.62
2023-03-15T06:11:47.683Z,1011.57
2023-03-15T06:12:48.011Z,1011.63
2023-03-15T06:13:47.740Z,1011.63
2023-03-15T06:14:47.767Z,1011.67
2023-03-15T06:15:47.797Z,1011.64
2023-03-15T06:16:47.897Z,1011.67
2023-03-15T06:17:47.856Z,1011.67
2023-03-15T06:18:48.020Z,1011.71
2023-03-15T06:20:47.938Z,1011.73
2023-03-15T06:21:47.967Z,1011.74
2023-03-15T06:22:48.006Z,1011.74
2023-03-15T06:23:48.009Z,1011.71
2023-03-15T06:24:48.145Z,1011.76
2023-03-15T06:25:48.072Z,1011.72
2023-03-15T06:26:48.102Z,1011.73
2023-03-15T06:27:48.119Z,1011.70
2023-03-15T06:28:48.137Z,1011.68
2023-03-15T06:29:48.180Z,1011.71
2023-03-15T06:30:48.272Z,1011.69
2023-03-15T06:31:48.526Z,1011.72
2023-03-15T06:32:48.340Z,1011.76
2023-03-15T06:33:48.288Z,1011.78
2023-03-15T06:34:48.310Z,1011.80
2023-03-15T06:35:48.615Z,1011.78
2023-03-15T06:36:48.359Z,1011.82
2023-03-15T06:37:48.398Z,1011.84
2023-03-15T06:38:48.726Z,1011.86
2023-03-15T06:39:48.445Z,1011.89
2023-03-15T06:40:48.465Z,1011.90
2023-03-15T06:41:48.516Z,1011.92
2023-03-15T06:42:48.526Z,1011.93
2023-03-15T06:43:48.572Z,1011.96
2023-03-15T06:44:50.777Z,1011.99
2023-03-15T06:45:48.929Z,1012.01
2023-03-15T06:47:48.666Z,1012.04
2023-03-15T06:48:48.713Z,1012.06
2023-03-15T06:49:48.763Z,1012.09
2023-03-15T06:50:48.746Z,1012.10
2023-03-15T06:51:48.765Z,1012.07
2023-03-15T06:52:49.096Z,1012.10
2023-03-15T06:53:48.895Z,1012.09
2023-03-15T06:54:48.846Z,1012.14
2023-03-15T06:55:48.881Z,1012.13
2023-03-15T06:56:48.912Z,1012.19
2023-03-15T06:57:48.937Z,1012.23
2023-03-15T06:58:49.260Z,1012.25
2023-03-15T06:59:48.987Z,1012.23
2023-03-15T07:00:49.021Z,1012.30
2023-03-15T07:01:49.074Z,1012.28
2023-03-15T07:02:49.104Z,1012.33
2023-03-15T07:03:49.095Z,1012.35
2023-03-15T07:04:49.453Z,1012.33
2023-03-15T07:05:49.153Z,1012.35
2023-03-15T07:06:49.233Z,1012.39
2023-03-15T07:07:49.246Z,1012.42
2023-03-15T07:08:49.240Z,1012.43
2023-03-15T07:09:49.262Z,1012.45
2023-03-15T07:10:49.734Z,1012.49
2023-03-15T07:11:49.318Z,1012.50
2023-03-15T07:12:49.345Z,1012.52
2023-03-15T07:13:49.367Z,1012.51
2023-03-15T07:14:49.412Z,1012.51
2023-03-15T07:15:49.436Z,1012.57
2023-03-15T07:16:49.460Z,1012.58
2023-03-15T07:17:49.779Z,1012.61
2023-03-15T07:18:49.506Z,1012.64
2023-03-15T07:19:56.273Z,1012.72
2023-03-15T07:21:49.614Z,1012.83
2023-03-15T07:22:49.618Z,1012.79
2023-03-15T07:23:49.704Z,1012.84
2023-03-15T07:24:49.973Z,1012.86
2023-03-15T07:25:54.928Z,1012.88
2023-03-15T07:27:49.755Z,1012.88
2023-03-15T07:28:49.785Z,1012.90
2023-03-15T07:29:49.806Z,1012.92
2023-03-15T07:30:49.830Z,1012.94
2023-03-15T07:31:50.305Z,1012.96
2023-03-15T07:32:50.070Z,1012.94
2023-03-15T07:33:49.915Z,1012.97
2023-03-15T07:34:49.941Z,1012.99
2023-03-15T07:35:50.025Z,1013.02
2023-03-15T07:36:49.993Z,1012.98
2023-03-15T07:37:50.062Z,1012.99
2023-03-15T07:38:50.348Z,1013.02
2023-03-15T07:39:50.075Z,1013.08
2023-03-15T07:40:50.108Z,1013.04
2023-03-15T07:42:50.158Z,1013.14
2023-03-15T07:43:50.180Z,1013.15
2023-03-15T07:44:50.219Z,1013.13
2023-03-15T07:45:50.549Z,1013.16
2023-03-15T07:46:50.315Z,1013.18
2023-03-15T07:47:50.293Z,1013.25
2023-03-15T07:48:50.326Z,1013.20
2023-03-15T07:49:50.348Z,1013.20
2023-03-15T07:50:50.373Z,1013.25
2023-03-15T07:51:50.401Z,1013.26
2023-03-15T07:52:51.591Z,1013.28
2023-03-15T07:53:50.482Z,1013.29
2023-03-15T07:54:50.483Z,1013.30
2023-03-15T07:55:50.507Z,1013.29
2023-03-15T07:56:50.538Z,1013.33
2023-03-15T07:57:52.865Z,1013.32
2023-03-15T07:58:50.593Z,1013.36
2023-03-15T07:59:50.916Z,1013.37
2023-03-15T08:00:50.648Z,1013.37
2023-03-15T08:01:50.703Z,1013.37
2023-03-15T08:02:50.741Z,1013.37
2023-03-15T08:03:50.724Z,1013.37
2023-03-15T08:04:50.758Z,1013.43
2023-03-15T08:06:51.116Z,1013.50
2023-03-15T08:07:50.954Z,1013.53
2023-03-15T08:08:50.859Z,1013.55
2023-03-15T08:09:50.935Z,1013.54
2023-03-15T08:10:50.914Z,1013.58
2023-03-15T08:11:50.940Z,1013.62
2023-03-15T08:12:50.964Z,1013.62
2023-03-15T08:13:51.311Z,1013.66
2023-03-15T08:14:51.174Z,1013.61
2023-03-15T08:15:51.180Z,1013.64
2023-03-15T08:16:51.137Z,1013.66
2023-03-15T08:17:51.177Z,1013.68
2023-03-15T08:18:51.231Z,1013.69
2023-03-15T08:19:51.268Z,1013.72
2023-03-15T08:20:51.759Z,1013.70
2023-03-15T08:21:51.220Z,1013.73
2023-03-15T08:22:51.378Z,1013.68
2023-03-15T08:23:51.273Z,1013.69
2023-03-15T08:24:51.400Z,1013.78
2023-03-15T08:25:51.351Z,1013.77
2023-03-15T08:26:51.426Z,1013.82
2023-03-15T08:27:51.750Z,1013.79
2023-03-15T08:28:51.466Z,1013.82
2023-03-15T08:29:53.316Z,1013.82
2023-03-15T08:30:51.562Z,1013.82
2023-03-15T08:31:51.749Z,1013.84
2023-03-15T08:32:51.655Z,1013.84
2023-03-15T08:33:51.550Z,1013.84
2023-03-15T08:34:51.632Z,1013.85
2023-03-15T08:35:51.656Z,1013.85
2023-03-15T08:36:51.703Z,1013.91
2023-03-15T08:37:51.664Z,1013.95
2023-03-15T08:38:51.683Z,1013.97
2023-03-15T08:39:51.713Z,1013.99
2023-03-15T08:40:52.036Z,1014.02
2023-03-15T08:41:51.791Z,1014.05
2023-03-15T08:42:51.797Z,1014.09
2023-03-15T08:43:51.830Z,1014.14
2023-03-15T08:44:51.903Z,1014.14
2023-03-15T08:46:00.836Z,1014.14
2023-03-15T08:46:51.954Z,1014.19
2023-03-15T08:47:51.929Z,1014.21
2023-03-15T08:48:51.961Z,1014.22
2023-03-15T08:49:51.982Z,1014.24
2023-03-15T08:50:52.007Z,1014.28
2023-03-15T08:51:52.039Z,1014.28
2023-03-15T08:52:52.068Z,1014.33
2023-03-15T08:53:52.106Z,1014.39
2023-03-15T08:54:52.118Z,1014.38
2023-03-15T08:55:52.142Z,1014.45
2023-03-15T08:56:52.271Z,1014.46
2023-03-15T08:57:52.236Z,1014.51
2023-03-15T08:58:52.500Z,1014.51
2023-03-15T08:59:52.275Z,1014.52
2023-03-15T09:00:52.289Z,1014.52
2023-03-15T09:01:52.407Z,1014.53
2023-03-15T09:02:52.414Z,1014.51
2023-03-15T09:03:52.432Z,1014.54
2023-03-15T09:04:53.490Z,1014.52
2023-03-15T09:05:52.669Z,1014.54
2023-03-15T09:06:52.444Z,1014.60
2023-03-15T09:07:52.576Z,1014.55
2023-03-15T09:08:52.501Z,1014.57
2023-03-15T09:09:52.827Z,1014.48
2023-03-15T09:10:52.560Z,1014.50
2023-03-15T09:11:52.855Z,1014.50
2023-03-15T09:12:52.912Z,1014.44
2023-03-15T09:13:52.661Z,1014.49
2023-03-15T09:14:52.675Z,1014.45
2023-03-15T09:15:52.691Z,1014.48
2023-03-15T09:16:52.799Z,1014.48
2023-03-15T09:17:52.761Z,1014.47
2023-03-15T09:18:52.775Z,1014.44
2023-03-15T09:19:53.104Z,1014.49
2023-03-15T09:20:52.838Z,1014.43
2023-03-15T09:21:52.870Z,1014.40
2023-03-15T09:22:52.901Z,1014.43
2023-03-15T09:23:52.938Z,1014.42
2023-03-15T09:24:52.946Z,1014.44
2023-03-15T09:25:52.981Z,1014.42
2023-03-15T09:26:53.306Z,1014.40
2023-03-15T09:27:53.029Z,1014.45
2023-03-15T09:28:53.067Z,1014.42
2023-03-15T09:29:53.107Z,1014.44
2023-03-15T09:30:53.172Z,1014.44
2023-03-15T09:31:53.158Z,1014.45
2023-03-15T09:32:53.259Z,1014.46
2023-03-15T09:33:53.501Z,1014.51
2023-03-15T09:34:53.231Z,1014.47
2023-03-15T09:35:53.318Z,1014.50
2023-03-15T09:36:53.276Z,1014.50
2023-03-15T09:37:53.308Z,1014.47
2023-03-15T09:38:53.358Z,1014.48
2023-03-15T09:39:53.384Z,1014.51
2023-03-15T09:40:53.643Z,1014.48
2023-03-15T09:41:53.416Z,1014.54
2023-03-15T09:42:53.449Z,1014.55
2023-03-15T09:43:53.487Z,1014.55
2023-03-15T09:44:53.507Z,1014.54
2023-03-15T09:45:53.606Z,1014.55
2023-03-15T09:46:53.756Z,1014.59
2023-03-15T09:47:53.834Z,1014.59
2023-03-15T09:48:53.620Z,1014.58
2023-03-15T09:49:53.641Z,1014.59
2023-03-15T09:50:53.664Z,1014.61
2023-03-15T09:51:53.700Z,1014.62
2023-03-15T09:52:53.722Z,1014.63
2023-03-15T09:53:53.752Z,1014.60
2023-03-15T09:54:54.026Z,1014.61
2023-03-15T09:55:53.803Z,1014.61
2023-03-15T09:56:53.833Z,1014.62
2023-03-15T09:57:53.865Z,1014.64
2023-03-15T09:58:53.884Z,1014.64
2023-03-15T09:59:53.914Z,1014.66
2023-03-15T10:00:53.943Z,1014.63
2023-03-15T10:01:54.428Z,1014.62
2023-03-15T10:02:53.994Z,1014.55
2023-03-15T10:03:54.072Z,1014.54
2023-03-15T10:04:54.053Z,1014.51
2023-03-15T10:05:54.098Z,1014.54
2023-03-15T10:06:54.193Z,1014.55
2023-03-15T10:08:54.470Z,1014.54
2023-03-15T10:09:54.196Z,1014.51
2023-03-15T10:10:54.221Z,1014.50
2023-03-15T10:11:54.245Z,1014.52
2023-03-15T10:12:54.278Z,1014.52
2023-03-15T10:13:54.312Z,1014.52
2023-03-15T10:14:54.327Z,1014.56
2023-03-15T10:15:54.675Z,1014.59
2023-03-15T10:16:54.392Z,1014.59
2023-03-15T10:17:54.452Z,1014.61
2023-03-15T10:18:54.443Z,1014.62
2023-03-15T10:19:54.468Z,1014.60
2023-03-15T10:20:54.573Z,1014.62
2023-03-15T10:21:54.529Z,1014.68
2023-03-15T10:22:54.852Z,1014.71
2023-03-15T10:23:54.580Z,1014.78
2023-03-15T10:24:54.619Z,1014.73
2023-03-15T10:25:54.671Z,1014.66
2023-03-15T10:26:54.674Z,1014.69
2023-03-15T10:27:54.698Z,1014.69
2023-03-15T10:28:55.057Z,1014.75
2023-03-15T10:29:54.787Z,1014.73
2023-03-15T10:30:54.844Z,1014.78
2023-03-15T10:31:54.892Z,1014.78
2023-03-15T10:32:54.914Z,1014.74
2023-03-15T10:33:54.877Z,1014.69
2023-03-15T10:34:54.917Z,1014.70
2023-03-15T10:36:04.382Z,1014.71
2023-03-15T10:36:54.948Z,1014.75
2023-03-15T10:37:54.970Z,1014.76
2023-03-15T10:38:54.994Z,1014.75
2023-03-15T10:39:55.022Z,1014.70
2023-03-15T10:40:55.083Z,1014.72
2023-03-15T10:41:55.080Z,1014.71
2023-03-15T10:42:55.109Z,1014.77
2023-03-15T10:43:55.131Z,1014.76
2023-03-15T10:44:55.166Z,1014.75
2023-03-15T10:45:55.195Z,1014.72
2023-03-15T10:46:55.637Z,1014.76
2023-03-15T10:48:00.287Z,1014.77
2023-03-15T10:48:55.274Z,1014.73
2023-03-15T10:49:55.333Z,1014.69
2023-03-15T10:50:55.329Z,1014.67
2023-03-15T10:51:55.356Z,1014.68
2023-03-15T10:52:55.386Z,1014.68
2023-03-15T10:53:55.410Z,1014.65
2023-03-15T10:55:03.958Z,1014.64
2023-03-15T10:55:55.487Z,1014.69
2023-03-15T10:56:55.493Z,1014.71
2023-03-15T10:57:55.526Z,1014.69
2023-03-15T10:59:11.490Z,1014.67
2023-03-15T10:59:55.578Z,1014.67
2023-03-15T11:00:55.608Z,1014.67
2023-03-15T11:02:55.692Z,1014.71
2023-03-15T11:04:55.716Z,1014.78
2023-03-15T11:05:56.067Z,1014.80
2023-03-15T11:06:55.780Z,1014.83
2023-03-15T11:07:55.858Z,1014.84
2023-03-15T11:08:55.852Z,1014.87
2023-03-15T11:09:55.883Z,1014.84
2023-03-15T11:10:55.904Z,1014.87
2023-03-15T11:11:56.436Z,1014.82
2023-03-15T11:12:56.012Z,1014.82
2023-03-15T11:13:57.392Z,1014.83
2023-03-15T11:14:56.591Z,1014.86
2023-03-15T11:15:56.124Z,1014.92
2023-03-15T11:16:56.252Z,1014.93
2023-03-15T11:17:56.469Z,1014.97
2023-03-15T11:18:56.167Z,1014.91
2023-03-15T11:19:56.910Z,1014.90
2023-03-15T11:20:56.202Z,1014.91
2023-03-15T11:21:56.280Z,1014.94
2023-03-15T11:22:56.239Z,1015.02
2023-03-15T11:23:56.721Z,1015.00
2023-03-15T11:24:56.649Z,1015.03
2023-03-15T11:25:56.372Z,1014.99
2023-03-15T11:26:56.402Z,1015.01
2023-03-15T11:27:56.735Z,1015.00
2023-03-15T11:28:58.291Z,1015.02
2023-03-15T11:29:56.437Z,1015.06
2023-03-15T11:30:56.764Z,1015.08
2023-03-15T11:31:56.611Z,1015.08
2023-03-15T11:32:56.591Z,1015.15
2023-03-15T11:33:56.562Z,1015.14
2023-03-15T11:34:56.577Z,1015.13
2023-03-15T11:35:56.629Z,1015.13
2023-03-15T11:37:07.658Z,1015.12
2023-03-15T11:38:06.212Z,1015.10
2023-03-15T11:38:56.791Z,1015.13
2023-03-15T11:40:08.750Z,1015.12
2023-03-15T11:40:56.828Z,1015.14
2023-03-15T11:41:56.780Z,1015.14
2023-03-15T11:42:56.828Z,1015.21
2023-03-15T11:43:56.907Z,1015.18
2023-03-15T11:44:57.161Z,1015.21
2023-03-15T11:45:56.911Z,1015.29
2023-03-15T11:47:57.165Z,1015.30
2023-03-15T11:48:56.992Z,1015.28
2023-03-15T11:49:57.053Z,1015.27
2023-03-15T11:50:57.023Z,1015.23
2023-03-15T11:51:57.435Z,1015.17
2023-03-15T11:52:57.210Z,1015.17
2023-03-15T11:53:57.143Z,1015.22
2023-03-15T11:55:57.260Z,1015.26
2023-03-15T11:56:57.211Z,1015.24
2023-03-15T11:57:57.246Z,1015.23
2023-03-15T11:59:59.001Z,1015.22
2023-03-15T12:00:57.399Z,1015.25
2023-03-15T12:01:57.624Z,1015.27
2023-03-15T12:02:57.609Z,1015.24
2023-03-15T12:03:57.425Z,1015.19
2023-03-15T12:05:01.767Z,1015.22
2023-03-15T12:05:57.477Z,1015.21
2023-03-15T12:06:57.532Z,1015.27
2023-03-15T12:07:57.554Z,1015.22
2023-03-15T12:08:57.581Z,1015.26
2023-03-15T12:09:57.698Z,1015.21
2023-03-15T12:10:57.661Z,1015.19
2023-03-15T12:11:57.687Z,1015.24
2023-03-15T12:12:57.694Z,1015.25
2023-03-15T12:13:57.699Z,1015.21
2023-03-15T12:15:02.929Z,1015.20
2023-03-15T12:15:57.971Z,1015.21
2023-03-15T12:16:57.973Z,1015.21
2023-03-15T12:17:58.183Z,1015.23
2023-03-15T12:19:10.003Z,1015.22
2023-03-15T12:20:01.548Z,1015.20
2023-03-15T12:20:57.888Z,1015.21
2023-03-15T12:21:57.904Z,1015.28
2023-03-15T12:22:58.443Z,1015.30
2023-03-15T12:23:58.029Z,1015.28
2023-03-15T12:24:58.020Z,1015.28
2023-03-15T12:25:58.062Z,1015.29
2023-03-15T12:26:58.154Z,1015.25
2023-03-15T12:27:58.085Z,1015.30
2023-03-15T12:28:58.126Z,1015.33
2023-03-15T12:29:58.704Z,1015.25
2023-03-15T12:30:58.197Z,1015.25
2023-03-15T12:31:58.210Z,1015.20
2023-03-15T12:32:58.364Z,1015.18
2023-03-15T12:33:58.328Z,1015.20
2023-03-15T12:34:58.305Z,1015.22
2023-03-15T12:35:58.372Z,1015.24
2023-03-15T12:36:58.347Z,1015.25
2023-03-15T12:37:58.370Z,1015.24
2023-03-15T12:38:58.405Z,1015.22
2023-03-15T12:39:58.441Z,1015.25
2023-03-15T12:40:58.666Z,1015.31
2023-03-15T12:41:58.501Z,1015.31
2023-03-15T12:42:58.802Z,1015.28
2023-03-15T12:43:58.550Z,1015.25
2023-03-15T12:44:58.572Z,1015.25
2023-03-15T12:45:58.637Z,1015.23
2023-03-15T12:46:58.636Z,1015.23
2023-03-15T12:47:58.654Z,1015.21
2023-03-15T12:48:58.684Z,1015.19
2023-03-15T12:49:58.943Z,1015.16
2023-03-15T12:50:58.784Z,1015.14
2023-03-15T12:51:59.486Z,1015.18
2023-03-15T12:52:58.813Z,1015.17
2023-03-15T12:53:58.817Z,1015.17
2023-03-15T12:54:58.861Z,1015.12
2023-03-15T12:56:08.055Z,1015.14
2023-03-15T12:56:58.920Z,1015.17
2023-03-15T12:57:58.949Z,1015.20
2023-03-15T12:58:58.965Z,1015.17
2023-03-15T12:59:59.284Z,1015.17
2023-03-15T13:00:59.025Z,1015.19
2023-03-15T13:01:59.048Z,1015.16
2023-03-15T13:03:01.896Z,1015.17
2023-03-15T13:03:59.145Z,1015.16